sensor_id;sensor_type;location;lat;lon;timestamp;pressure;altitude;pressure_sealevel;temperature;humidity
32324;BME280;25666;44.350;9.222;2022-07-22T00:02:17;101633.06;;;25.02;100.00
32324;BME280;25666;44.350;9.222;2022-07-22T00:04:42;101631.34;;;25.09;100.00
32324;BME280;25666;44.350;9.222;2022-07-22T00:07:08;101628.50;;;25.09;100.00
32324;BME280;25666;44.350;9.222;2022-07-22T00:09:35;101632.97;;;25.06;100.00
32324;BME280;25666;44.350;9.222;2022-07-22T00:12:02;101626.53;;;25.02;100.00
32324;BME280;25666;44.350;9.222;2022-07-22T00:14:27;101628.22;;;24.99;100.00
32324;BME280;25666;44.350;9.222;2022-07-22T00:16:53;101626.88;;;25.08;100.00
32324;BME280;25666;44.350;9.222;2022-07-22T00:19:19;101628.66;;;24.94;100.00
32324;BME280;25666;44.350;9.222;2022-07-22T00:21:44;101629.16;;;24.89;100.00
32324;BME280;25666;44.350;9.222;2022-07-22T00:24:10;101623.97;;;24.81;100.00
32324;BME280;25666;44.350;9.222;2022-07-22T00:26:35;101620.31;;;24.80;100.00
32324;BME280;25666;44.350;9.222;2022-07-22T00:29:01;101618.13;;;24.91;100.00
32324;BME280;25666;44.350;9.222;2022-07-22T00:31:27;101620.84;;;25.02;100.00
32324;BME280;25666;44.350;9.222;2022-07-22T00:33:53;101611.44;;;25.05;100.00
32324;BME280;25666;44.350;9.222;2022-07-22T00:36:18;101612.75;;;24.97;100.00
32324;BME280;25666;44.350;9.222;2022-07-22T00:38:44;101622.22;;;24.90;100.00
32324;BME280;25666;44.350;9.222;2022-07-22T00:41:11;101620.28;;;24.84;100.00
32324;BME280;25666;44.350;9.222;2022-07-22T00:44:07;101614.50;;;24.87;100.00
32324;BME280;25666;44.350;9.222;2022-07-22T00:46:34;101616.22;;;24.81;100.00
32324;BME280;25666;44.350;9.222;2022-07-22T00:49:00;101614.59;;;24.80;100.00
32324;BME280;25666;44.350;9.222;2022-07-22T00:51:27;101613.41;;;24.78;100.00
32324;BME280;25666;44.350;9.222;2022-07-22T00:53:54;101621.56;;;24.76;100.00
32324;BME280;25666;44.350;9.222;2022-07-22T00:56:23;101610.66;;;24.71;100.00
32324;BME280;25666;44.350;9.222;2022-07-22T00:58:50;101612.66;;;24.74;100.00
32324;BME280;25666;44.350;9.222;2022-07-22T01:01:16;101610.25;;;24.69;100.00
32324;BME280;25666;44.350;9.222;2022-07-22T01:03:42;101611.97;;;24.63;100.00
32324;BME280;25666;44.350;9.222;2022-07-22T01:06:08;101602.94;;;24.71;100.00
32324;BME280;25666;44.350;9.222;2022-07-22T01:08:34;101608.66;;;24.68;100.00
32324;BME280;25666;44.350;9.222;2022-07-22T01:11:18;101607.84;;;24.67;100.00
32324;BME280;25666;44.350;9.222;2022-07-22T01:13:45;101610.00;;;24.56;100.00
32324;BME280;25666;44.350;9.222;2022-07-22T01:16:12;101611.69;;;24.53;100.00
32324;BME280;25666;44.350;9.222;2022-07-22T01:18:39;101608.38;;;24.59;100.00
32324;BME280;25666;44.350;9.222;2022-07-22T01:21:05;101612.69;;;24.70;100.00
32324;BME280;25666;44.350;9.222;2022-07-22T01:23:32;101618.56;;;24.56;100.00
32324;BME280;25666;44.350;9.222;2022-07-22T01:25:59;101610.78;;;24.60;100.00
32324;BME280;25666;44.350;9.222;2022-07-22T01:28:24;101613.59;;;24.64;100.00
32324;BME280;25666;44.350;9.222;2022-07-22T01:30:50;101604.72;;;24.58;100.00
32324;BME280;25666;44.350;9.222;2022-07-22T01:33:20;101601.44;;;24.60;100.00
32324;BME280;25666;44.350;9.222;2022-07-22T01:35:47;101604.28;;;24.60;100.00
32324;BME280;25666;44.350;9.222;2022-07-22T01:38:14;101606.84;;;24.50;100.00
32324;BME280;25666;44.350;9.222;2022-07-22T01:40:41;101606.50;;;24.45;100.00
32324;BME280;25666;44.350;9.222;2022-07-22T01:43:11;101608.16;;;24.42;100.00
32324;BME280;25666;44.350;9.222;2022-07-22T01:45:39;101606.31;;;24.59;100.00
32324;BME280;25666;44.350;9.222;2022-07-22T01:48:05;101612.34;;;24.31;100.00
32324;BME280;25666;44.350;9.222;2022-07-22T01:50:31;101609.50;;;24.31;100.00
32324;BME280;25666;44.350;9.222;2022-07-22T01:52:57;101609.06;;;24.36;100.00
32324;BME280;25666;44.350;9.222;2022-07-22T01:55:24;101606.63;;;24.34;100.00
32324;BME280;25666;44.350;9.222;2022-07-22T01:57:50;101608.28;;;24.32;100.00
32324;BME280;25666;44.350;9.222;2022-07-22T02:00:24;101609.72;;;24.13;100.00
32324;BME280;25666;44.350;9.222;2022-07-22T02:02:50;101605.97;;;24.20;100.00
32324;BME280;25666;44.350;9.222;2022-07-22T02:05:16;101607.56;;;24.24;100.00
32324;BME280;25666;44.350;9.222;2022-07-22T02:07:42;101606.41;;;24.18;100.00
32324;BME280;25666;44.350;9.222;2022-07-22T02:10:08;101609.31;;;24.15;100.00
32324;BME280;25666;44.350;9.222;2022-07-22T02:12:37;101606.06;;;24.09;100.00
32324;BME280;25666;44.350;9.222;2022-07-22T02:15:04;101604.91;;;24.03;100.00
32324;BME280;25666;44.350;9.222;2022-07-22T02:17:32;101611.84;;;24.02;100.00
32324;BME280;25666;44.350;9.222;2022-07-22T02:19:59;101600.53;;;23.95;100.00
32324;BME280;25666;44.350;9.222;2022-07-22T02:22:26;101598.94;;;23.90;100.00
32324;BME280;25666;44.350;9.222;2022-07-22T02:24:51;101596.06;;;23.94;100.00
32324;BME280;25666;44.350;9.222;2022-07-22T02:27:17;101594.56;;;23.82;100.00
32324;BME280;25666;44.350;9.222;2022-07-22T02:29:44;101593.38;;;23.80;100.00
32324;BME280;25666;44.350;9.222;2022-07-22T02:32:10;101592.56;;;23.79;100.00
32324;BME280;25666;44.350;9.222;2022-07-22T02:34:36;101589.25;;;23.84;100.00
32324;BME280;25666;44.350;9.222;2022-07-22T02:37:02;101594.09;;;23.87;100.00
32324;BME280;25666;44.350;9.222;2022-07-22T02:39:28;101598.34;;;23.65;100.00
32324;BME280;25666;44.350;9.222;2022-07-22T02:41:54;101590.19;;;23.71;100.00
32324;BME280;25666;44.350;9.222;2022-07-22T02:44:20;101596.16;;;23.87;100.00
32324;BME280;25666;44.350;9.222;2022-07-22T02:46:46;101601.91;;;23.76;100.00
32324;BME280;25666;44.350;9.222;2022-07-22T02:49:20;101599.09;;;23.73;100.00
32324;BME280;25666;44.350;9.222;2022-07-22T02:51:46;101589.69;;;23.83;100.00
32324;BME280;25666;44.350;9.222;2022-07-22T02:54:11;101594.91;;;23.88;100.00
32324;BME280;25666;44.350;9.222;2022-07-22T02:56:38;101590.38;;;23.94;100.00
32324;BME280;25666;44.350;9.222;2022-07-22T02:59:04;101590.88;;;23.85;100.00
32324;BME280;25666;44.350;9.222;2022-07-22T03:01:30;101593.31;;;23.87;100.00
32324;BME280;25666;44.350;9.222;2022-07-22T03:04:01;101586.84;;;23.83;100.00
32324;BME280;25666;44.350;9.222;2022-07-22T03:06:31;101593.00;;;23.74;100.00
32324;BME280;25666;44.350;9.222;2022-07-22T03:09:09;101588.59;;;23.66;100.00
32324;BME280;25666;44.350;9.222;2022-07-22T03:11:42;101593.38;;;23.76;100.00
32324;BME280;25666;44.350;9.222;2022-07-22T03:14:09;101586.00;;;23.86;100.00
32324;BME280;25666;44.350;9.222;2022-07-22T03:16:34;101586.13;;;23.72;100.00
32324;BME280;25666;44.350;9.222;2022-07-22T03:19:00;101584.56;;;23.64;100.00
32324;BME280;25666;44.350;9.222;2022-07-22T03:21:25;101592.84;;;23.44;100.00
32324;BME280;25666;44.350;9.222;2022-07-22T03:23:52;101591.13;;;23.57;100.00
32324;BME280;25666;44.350;9.222;2022-07-22T03:26:20;101587.53;;;23.50;100.00
32324;BME280;25666;44.350;9.222;2022-07-22T03:28:47;101585.91;;;23.52;100.00
32324;BME280;25666;44.350;9.222;2022-07-22T03:31:13;101590.34;;;23.53;100.00
32324;BME280;25666;44.350;9.222;2022-07-22T03:33:39;101589.47;;;23.60;100.00
32324;BME280;25666;44.350;9.222;2022-07-22T03:36:06;101589.13;;;23.54;100.00
32324;BME280;25666;44.350;9.222;2022-07-22T03:38:33;101590.31;;;23.57;100.00
32324;BME280;25666;44.350;9.222;2022-07-22T03:40:59;101587.56;;;23.46;100.00
32324;BME280;25666;44.350;9.222;2022-07-22T03:43:24;101594.00;;;23.50;100.00
32324;BME280;25666;44.350;9.222;2022-07-22T03:45:50;101592.81;;;23.51;100.00
32324;BME280;25666;44.350;9.222;2022-07-22T03:48:15;101591.69;;;23.86;100.00
32324;BME280;25666;44.350;9.222;2022-07-22T03:50:41;101596.31;;;23.66;100.00
32324;BME280;25666;44.350;9.222;2022-07-22T03:53:07;101597.06;;;23.73;100.00
32324;BME280;25666;44.350;9.222;2022-07-22T03:55:37;101595.63;;;23.55;100.00
32324;BME280;25666;44.350;9.222;2022-07-22T03:58:02;101592.81;;;23.48;100.00
32324;BME280;25666;44.350;9.222;2022-07-22T04:00:29;101587.88;;;23.59;100.00
32324;BME280;25666;44.350;9.222;2022-07-22T04:02:56;101600.59;;;23.40;100.00
32324;BME280;25666;44.350;9.222;2022-07-22T04:05:40;101596.03;;;23.50;100.00
32324;BME280;25666;44.350;9.222;2022-07-22T04:08:07;101598.84;;;23.57;100.00
32324;BME280;25666;44.350;9.222;2022-07-22T04:10:32;101597.97;;;23.63;100.00
32324;BME280;25666;44.350;9.222;2022-07-22T04:12:58;101604.53;;;23.57;100.00
32324;BME280;25666;44.350;9.222;2022-07-22T04:15:32;101605.69;;;23.63;100.00
32324;BME280;25666;44.350;9.222;2022-07-22T04:17:58;101609.50;;;23.45;100.00
32324;BME280;25666;44.350;9.222;2022-07-22T04:20:25;101608.69;;;23.45;100.00
32324;BME280;25666;44.350;9.222;2022-07-22T04:23:18;101609.41;;;23.53;100.00
32324;BME280;25666;44.350;9.222;2022-07-22T04:25:43;101604.28;;;23.85;100.00
32324;BME280;25666;44.350;9.222;2022-07-22T04:28:10;101611.59;;;23.82;100.00
32324;BME280;25666;44.350;9.222;2022-07-22T04:30:36;101604.81;;;23.69;100.00
32324;BME280;25666;44.350;9.222;2022-07-22T04:33:02;101616.16;;;23.73;100.00
32324;BME280;25666;44.350;9.222;2022-07-22T04:35:27;101618.59;;;23.74;100.00
32324;BME280;25666;44.350;9.222;2022-07-22T04:38:12;101618.91;;;23.87;100.00
32324;BME280;25666;44.350;9.222;2022-07-22T04:40:43;101621.53;;;24.08;100.00
32324;BME280;25666;44.350;9.222;2022-07-22T04:43:09;101622.09;;;23.92;100.00
32324;BME280;25666;44.350;9.222;2022-07-22T04:45:34;101625.38;;;23.87;100.00
32324;BME280;25666;44.350;9.222;2022-07-22T04:48:00;101625.19;;;24.09;100.00
32324;BME280;25666;44.350;9.222;2022-07-22T04:50:26;101622.25;;;24.19;100.00
32324;BME280;25666;44.350;9.222;2022-07-22T04:52:58;101629.72;;;24.03;100.00
32324;BME280;25666;44.350;9.222;2022-07-22T04:55:24;101634.19;;;24.00;100.00
32324;BME280;25666;44.350;9.222;2022-07-22T04:57:50;101634.50;;;24.13;100.00
32324;BME280;25666;44.350;9.222;2022-07-22T05:00:16;101628.22;;;24.28;100.00
32324;BME280;25666;44.350;9.222;2022-07-22T05:02:50;101626.91;;;24.40;100.00
32324;BME280;25666;44.350;9.222;2022-07-22T05:05:16;101632.31;;;24.65;100.00
32324;BME280;25666;44.350;9.222;2022-07-22T05:07:42;101629.44;;;24.65;100.00
32324;BME280;25666;44.350;9.222;2022-07-22T05:10:08;101626.84;;;24.77;100.00
32324;BME280;25666;44.350;9.222;2022-07-22T05:12:34;101637.25;;;24.91;100.00
32324;BME280;25666;44.350;9.222;2022-07-22T05:14:59;101632.84;;;24.86;100.00
32324;BME280;25666;44.350;9.222;2022-07-22T05:17:25;101631.91;;;24.96;100.00
32324;BME280;25666;44.350;9.222;2022-07-22T05:20:11;101630.84;;;25.14;100.00
32324;BME280;25666;44.350;9.222;2022-07-22T05:22:38;101632.06;;;25.13;100.00
32324;BME280;25666;44.350;9.222;2022-07-22T05:25:06;101632.78;;;25.20;100.00
32324;BME280;25666;44.350;9.222;2022-07-22T05:27:32;101625.66;;;25.62;100.00
32324;BME280;25666;44.350;9.222;2022-07-22T05:29:57;101623.53;;;25.66;100.00
32324;BME280;25666;44.350;9.222;2022-07-22T05:32:23;101622.19;;;26.21;100.00
32324;BME280;25666;44.350;9.222;2022-07-22T05:34:53;101615.81;;;26.33;100.00
32324;BME280;25666;44.350;9.222;2022-07-22T05:37:19;101617.38;;;26.57;100.00
32324;BME280;25666;44.350;9.222;2022-07-22T05:39:45;101622.28;;;26.76;100.00
32324;BME280;25666;44.350;9.222;2022-07-22T05:42:11;101617.97;;;26.88;100.00
32324;BME280;25666;44.350;9.222;2022-07-22T05:44:37;101611.91;;;27.22;100.00
32324;BME280;25666;44.350;9.222;2022-07-22T05:47:03;101618.97;;;27.98;100.00
32324;BME280;25666;44.350;9.222;2022-07-22T05:49:29;101612.03;;;28.85;100.00
32324;BME280;25666;44.350;9.222;2022-07-22T05:52:01;101620.25;;;29.50;100.00
32324;BME280;25666;44.350;9.222;2022-07-22T05:54:27;101616.44;;;30.25;100.00
32324;BME280;25666;44.350;9.222;2022-07-22T05:56:54;101620.28;;;30.65;100.00
32324;BME280;25666;44.350;9.222;2022-07-22T05:59:19;101618.94;;;31.31;100.00
32324;BME280;25666;44.350;9.222;2022-07-22T06:01:45;101615.28;;;31.40;100.00
32324;BME280;25666;44.350;9.222;2022-07-22T06:04:31;101617.13;;;32.23;100.00
32324;BME280;25666;44.350;9.222;2022-07-22T06:06:58;101621.75;;;32.75;100.00
32324;BME280;25666;44.350;9.222;2022-07-22T06:09:23;101624.44;;;32.97;100.00
32324;BME280;25666;44.350;9.222;2022-07-22T06:11:49;101621.44;;;32.46;100.00
32324;BME280;25666;44.350;9.222;2022-07-22T06:14:14;101624.81;;;32.62;100.00
32324;BME280;25666;44.350;9.222;2022-07-22T06:16:40;101621.69;;;33.02;100.00
32324;BME280;25666;44.350;9.222;2022-07-22T06:19:06;101624.91;;;33.46;100.00
32324;BME280;25666;44.350;9.222;2022-07-22T06:21:31;101620.06;;;33.52;100.00
32324;BME280;25666;44.350;9.222;2022-07-22T06:23:58;101633.94;;;33.72;100.00
32324;BME280;25666;44.350;9.222;2022-07-22T06:26:23;101625.78;;;34.56;100.00
32324;BME280;25666;44.350;9.222;2022-07-22T06:28:49;101627.34;;;34.81;100.00
32324;BME280;25666;44.350;9.222;2022-07-22T06:31:14;101636.25;;;34.54;100.00
32324;BME280;25666;44.350;9.222;2022-07-22T06:33:42;101637.34;;;35.24;100.00
32324;BME280;25666;44.350;9.222;2022-07-22T06:36:08;101636.34;;;35.76;100.00
32324;BME280;25666;44.350;9.222;2022-07-22T06:38:36;101646.53;;;36.07;100.00
32324;BME280;25666;44.350;9.222;2022-07-22T06:41:21;101650.59;;;35.45;100.00
32324;BME280;25666;44.350;9.222;2022-07-22T06:44:13;101645.72;;;36.67;100.00
32324;BME280;25666;44.350;9.222;2022-07-22T06:46:50;101639.59;;;36.19;100.00
32324;BME280;25666;44.350;9.222;2022-07-22T06:49:17;101643.94;;;36.29;100.00
32324;BME280;25666;44.350;9.222;2022-07-22T06:51:43;101646.84;;;36.75;100.00
32324;BME280;25666;44.350;9.222;2022-07-22T06:54:08;101642.72;;;37.38;100.00
32324;BME280;25666;44.350;9.222;2022-07-22T06:56:34;101645.81;;;36.32;100.00
32324;BME280;25666;44.350;9.222;2022-07-22T06:59:00;101646.72;;;36.03;100.00
32324;BME280;25666;44.350;9.222;2022-07-22T07:01:25;101652.53;;;36.64;100.00
32324;BME280;25666;44.350;9.222;2022-07-22T07:03:58;101661.66;;;36.77;100.00
32324;BME280;25666;44.350;9.222;2022-07-22T07:06:24;101657.66;;;37.26;100.00
32324;BME280;25666;44.350;9.222;2022-07-22T07:09:08;101658.59;;;38.22;100.00
32324;BME280;25666;44.350;9.222;2022-07-22T07:11:34;101658.66;;;38.28;100.00
32324;BME280;25666;44.350;9.222;2022-07-22T07:14:05;101663.69;;;39.53;98.57
32324;BME280;25666;44.350;9.222;2022-07-22T07:16:31;101662.78;;;40.08;92.63
32324;BME280;25666;44.350;9.222;2022-07-22T07:18:56;101673.94;;;39.98;91.16
32324;BME280;25666;44.350;9.222;2022-07-22T07:21:22;101662.22;;;40.26;88.45
32324;BME280;25666;44.350;9.222;2022-07-22T07:23:48;101657.03;;;39.80;93.98
32324;BME280;25666;44.350;9.222;2022-07-22T07:26:13;101662.38;;;39.37;91.49
32324;BME280;25666;44.350;9.222;2022-07-22T07:28:39;101660.75;;;39.20;90.59
32324;BME280;25666;44.350;9.222;2022-07-22T07:31:12;101665.22;;;40.09;84.81
32324;BME280;25666;44.350;9.222;2022-07-22T07:33:38;101657.28;;;39.82;77.63
32324;BME280;25666;44.350;9.222;2022-07-22T07:36:03;101653.72;;;40.23;77.84
32324;BME280;25666;44.350;9.222;2022-07-22T07:38:35;101653.66;;;40.39;76.69
32324;BME280;25666;44.350;9.222;2022-07-22T07:41:03;101656.41;;;40.21;80.05
32324;BME280;25666;44.350;9.222;2022-07-22T07:43:29;101658.63;;;39.48;78.99
32324;BME280;25666;44.350;9.222;2022-07-22T07:45:54;101668.50;;;40.41;79.23
32324;BME280;25666;44.350;9.222;2022-07-22T07:48:21;101663.03;;;40.73;73.91
32324;BME280;25666;44.350;9.222;2022-07-22T07:50:46;101665.91;;;40.27;74.10
32324;BME280;25666;44.350;9.222;2022-07-22T07:53:16;101664.97;;;40.65;72.38
32324;BME280;25666;44.350;9.222;2022-07-22T07:55:42;101670.75;;;40.13;70.29
32324;BME280;25666;44.350;9.222;2022-07-22T07:58:08;101667.31;;;39.98;68.07
32324;BME280;25666;44.350;9.222;2022-07-22T08:00:34;101666.69;;;38.49;77.76
32324;BME280;25666;44.350;9.222;2022-07-22T08:03:02;101674.78;;;38.99;77.24
32324;BME280;25666;44.350;9.222;2022-07-22T08:05:30;101675.31;;;39.47;78.12
32324;BME280;25666;44.350;9.222;2022-07-22T08:07:57;101669.88;;;37.61;89.76
32324;BME280;25666;44.350;9.222;2022-07-22T08:10:23;101678.59;;;36.03;98.42
32324;BME280;25666;44.350;9.222;2022-07-22T08:13:08;101683.53;;;35.18;100.00
32324;BME280;25666;44.350;9.222;2022-07-22T08:15:46;101686.59;;;34.85;100.00
32324;BME280;25666;44.350;9.222;2022-07-22T08:18:32;101691.38;;;34.03;100.00
32324;BME280;25666;44.350;9.222;2022-07-22T08:20:58;101684.50;;;33.58;100.00
32324;BME280;25666;44.350;9.222;2022-07-22T08:23:59;101686.44;;;33.70;100.00
32324;BME280;25666;44.350;9.222;2022-07-22T08:26:25;101690.66;;;33.51;100.00
32324;BME280;25666;44.350;9.222;2022-07-22T08:28:51;101688.81;;;33.30;100.00
32324;BME280;25666;44.350;9.222;2022-07-22T08:31:17;101685.78;;;33.06;100.00
32324;BME280;25666;44.350;9.222;2022-07-22T08:33:43;101685.81;;;32.52;100.00
32324;BME280;25666;44.350;9.222;2022-07-22T08:36:08;101695.97;;;31.98;100.00
32324;BME280;25666;44.350;9.222;2022-07-22T08:38:34;101689.31;;;32.10;100.00
32324;BME280;25666;44.350;9.222;2022-07-22T08:41:01;101690.44;;;31.42;100.00
32324;BME280;25666;44.350;9.222;2022-07-22T08:43:27;101690.06;;;31.62;100.00
32324;BME280;25666;44.350;9.222;2022-07-22T08:45:53;101687.66;;;31.51;100.00
32324;BME280;25666;44.350;9.222;2022-07-22T08:48:19;101693.22;;;31.24;100.00
32324;BME280;25666;44.350;9.222;2022-07-22T08:50:59;101692.47;;;31.33;100.00
32324;BME280;25666;44.350;9.222;2022-07-22T08:53:48;101697.56;;;30.85;100.00
32324;BME280;25666;44.350;9.222;2022-07-22T08:56:14;101690.03;;;31.00;100.00
32324;BME280;25666;44.350;9.222;2022-07-22T08:58:41;101690.63;;;31.17;100.00
32324;BME280;25666;44.350;9.222;2022-07-22T09:01:15;101701.94;;;31.11;100.00
32324;BME280;25666;44.350;9.222;2022-07-22T09:03:55;101699.44;;;30.79;100.00
32324;BME280;25666;44.350;9.222;2022-07-22T09:06:24;101694.75;;;30.51;100.00
32324;BME280;25666;44.350;9.222;2022-07-22T09:08:55;101700.69;;;30.56;100.00
32324;BME280;25666;44.350;9.222;2022-07-22T09:11:39;101700.06;;;30.96;100.00
32324;BME280;25666;44.350;9.222;2022-07-22T09:14:11;101702.59;;;30.94;100.00
32324;BME280;25666;44.350;9.222;2022-07-22T09:17:00;101703.59;;;30.78;100.00
32324;BME280;25666;44.350;9.222;2022-07-22T09:19:42;101700.69;;;30.09;100.00
32324;BME280;25666;44.350;9.222;2022-07-22T09:22:47;101698.00;;;30.27;100.00
32324;BME280;25666;44.350;9.222;2022-07-22T09:30:55;101703.09;;;29.98;100.00
32324;BME280;25666;44.350;9.222;2022-07-22T09:33:22;101700.44;;;30.29;100.00
32324;BME280;25666;44.350;9.222;2022-07-22T09:36:01;101702.63;;;30.59;100.00
32324;BME280;25666;44.350;9.222;2022-07-22T09:38:28;101705.91;;;30.70;100.00
32324;BME280;25666;44.350;9.222;2022-07-22T09:40:55;101692.00;;;30.47;100.00
32324;BME280;25666;44.350;9.222;2022-07-22T09:43:21;101701.22;;;30.17;100.00
32324;BME280;25666;44.350;9.222;2022-07-22T09:45:55;101688.00;;;30.32;100.00
32324;BME280;25666;44.350;9.222;2022-07-22T09:48:47;101688.13;;;30.41;100.00
32324;BME280;25666;44.350;9.222;2022-07-22T09:51:33;101689.28;;;30.18;100.00
32324;BME280;25666;44.350;9.222;2022-07-22T09:54:10;101685.69;;;30.40;100.00
32324;BME280;25666;44.350;9.222;2022-07-22T09:56:37;101682.69;;;30.43;100.00
32324;BME280;25666;44.350;9.222;2022-07-22T09:59:03;101687.03;;;30.01;100.00
32324;BME280;25666;44.350;9.222;2022-07-22T10:01:34;101686.13;;;30.38;100.00
32324;BME280;25666;44.350;9.222;2022-07-22T10:04:03;101686.09;;;30.16;100.00
32324;BME280;25666;44.350;9.222;2022-07-22T10:06:30;101686.53;;;30.62;100.00
32324;BME280;25666;44.350;9.222;2022-07-22T10:08:56;101683.09;;;30.54;100.00
32324;BME280;25666;44.350;9.222;2022-07-22T10:11:22;101685.81;;;30.23;100.00
32324;BME280;25666;44.350;9.222;2022-07-22T10:13:47;101677.38;;;30.76;100.00
32324;BME280;25666;44.350;9.222;2022-07-22T10:16:14;101682.97;;;30.79;100.00
32324;BME280;25666;44.350;9.222;2022-07-22T10:18:44;101681.91;;;30.64;100.00
32324;BME280;25666;44.350;9.222;2022-07-22T10:21:11;101687.22;;;30.66;100.00
32324;BME280;25666;44.350;9.222;2022-07-22T10:24:12;101681.19;;;30.73;100.00
32324;BME280;25666;44.350;9.222;2022-07-22T10:26:54;101684.91;;;30.83;100.00
32324;BME280;25666;44.350;9.222;2022-07-22T10:29:40;101679.78;;;30.77;100.00
32324;BME280;25666;44.350;9.222;2022-07-22T10:34:44;101679.03;;;30.64;100.00
32324;BME280;25666;44.350;9.222;2022-07-22T10:40:26;101680.66;;;30.87;100.00
32324;BME280;25666;44.350;9.222;2022-07-22T10:45:25;101680.31;;;30.63;100.00
32324;BME280;25666;44.350;9.222;2022-07-22T10:47:55;101675.22;;;30.89;100.00
32324;BME280;25666;44.350;9.222;2022-07-22T10:50:39;101673.97;;;30.90;100.00
32324;BME280;25666;44.350;9.222;2022-07-22T10:56:21;101665.28;;;31.03;100.00
32324;BME280;25666;44.350;9.222;2022-07-22T10:58:51;101675.47;;;30.95;100.00
32324;BME280;25666;44.350;9.222;2022-07-22T11:01:20;101674.59;;;31.07;100.00
32324;BME280;25666;44.350;9.222;2022-07-22T11:03:47;101672.97;;;30.84;100.00
32324;BME280;25666;44.350;9.222;2022-07-22T11:08:43;101662.53;;;30.21;100.00
32324;BME280;25666;44.350;9.222;2022-07-22T11:11:09;101666.41;;;30.62;100.00
32324;BME280;25666;44.350;9.222;2022-07-22T11:13:38;101663.09;;;30.63;100.00
32324;BME280;25666;44.350;9.222;2022-07-22T11:16:22;101668.38;;;30.18;100.00
32324;BME280;25666;44.350;9.222;2022-07-22T11:19:00;101661.19;;;30.48;100.00
32324;BME280;25666;44.350;9.222;2022-07-22T11:21:28;101661.50;;;30.15;100.00
32324;BME280;25666;44.350;9.222;2022-07-22T11:23:55;101663.28;;;30.35;100.00
32324;BME280;25666;44.350;9.222;2022-07-22T11:29:02;101664.72;;;30.73;100.00
32324;BME280;25666;44.350;9.222;2022-07-22T11:31:28;101659.13;;;30.70;100.00
32324;BME280;25666;44.350;9.222;2022-07-22T11:34:08;101658.72;;;30.80;100.00
32324;BME280;25666;44.350;9.222;2022-07-22T11:36:36;101654.66;;;30.69;100.00
32324;BME280;25666;44.350;9.222;2022-07-22T11:39:03;101659.47;;;30.72;100.00
32324;BME280;25666;44.350;9.222;2022-07-22T11:41:30;101658.31;;;30.48;100.00
32324;BME280;25666;44.350;9.222;2022-07-22T11:43:56;101658.66;;;30.50;100.00
32324;BME280;25666;44.350;9.222;2022-07-22T11:46:21;101653.09;;;30.21;100.00
32324;BME280;25666;44.350;9.222;2022-07-22T11:48:48;101652.41;;;30.51;100.00
32324;BME280;25666;44.350;9.222;2022-07-22T11:51:14;101641.88;;;30.48;100.00
32324;BME280;25666;44.350;9.222;2022-07-22T11:53:41;101642.78;;;30.45;100.00
32324;BME280;25666;44.350;9.222;2022-07-22T11:56:08;101643.16;;;30.47;100.00
32324;BME280;25666;44.350;9.222;2022-07-22T11:58:41;101644.91;;;30.32;100.00
32324;BME280;25666;44.350;9.222;2022-07-22T12:01:13;101642.34;;;30.47;100.00
32324;BME280;25666;44.350;9.222;2022-07-22T12:03:47;101646.78;;;30.26;100.00
32324;BME280;25666;44.350;9.222;2022-07-22T12:06:15;101635.69;;;30.37;100.00
32324;BME280;25666;44.350;9.222;2022-07-22T12:08:46;101633.47;;;30.54;100.00
32324;BME280;25666;44.350;9.222;2022-07-22T12:11:13;101638.72;;;30.55;100.00
32324;BME280;25666;44.350;9.222;2022-07-22T12:13:45;101631.06;;;30.52;100.00
32324;BME280;25666;44.350;9.222;2022-07-22T12:18:43;101627.78;;;30.63;100.00
32324;BME280;25666;44.350;9.222;2022-07-22T12:21:09;101628.66;;;30.72;100.00
32324;BME280;25666;44.350;9.222;2022-07-22T12:23:34;101635.72;;;30.59;100.00
32324;BME280;25666;44.350;9.222;2022-07-22T12:26:01;101632.91;;;30.68;100.00
32324;BME280;25666;44.350;9.222;2022-07-22T12:28:27;101627.38;;;30.73;100.00
32324;BME280;25666;44.350;9.222;2022-07-22T12:30:55;101624.50;;;30.73;100.00
32324;BME280;25666;44.350;9.222;2022-07-22T12:33:22;101636.00;;;30.73;100.00
32324;BME280;25666;44.350;9.222;2022-07-22T12:36:20;101636.34;;;30.75;100.00
32324;BME280;25666;44.350;9.222;2022-07-22T12:38:45;101637.34;;;30.60;100.00
32324;BME280;25666;44.350;9.222;2022-07-22T12:41:22;101634.66;;;30.65;100.00
32324;BME280;25666;44.350;9.222;2022-07-22T12:43:49;101638.59;;;30.24;100.00
32324;BME280;25666;44.350;9.222;2022-07-22T12:46:15;101646.69;;;30.51;100.00
32324;BME280;25666;44.350;9.222;2022-07-22T12:48:50;101639.88;;;30.58;100.00
32324;BME280;25666;44.350;9.222;2022-07-22T12:51:17;101641.47;;;30.59;100.00
32324;BME280;25666;44.350;9.222;2022-07-22T12:53:42;101628.69;;;30.04;100.00
32324;BME280;25666;44.350;9.222;2022-07-22T12:56:08;101636.53;;;30.25;100.00
32324;BME280;25666;44.350;9.222;2022-07-22T12:58:36;101631.94;;;30.27;100.00
32324;BME280;25666;44.350;9.222;2022-07-22T13:01:03;101633.84;;;30.09;100.00
32324;BME280;25666;44.350;9.222;2022-07-22T13:03:29;101638.41;;;30.19;100.00
32324;BME280;25666;44.350;9.222;2022-07-22T13:06:04;101633.47;;;30.19;100.00
32324;BME280;25666;44.350;9.222;2022-07-22T13:08:31;101627.53;;;30.36;100.00
32324;BME280;25666;44.350;9.222;2022-07-22T13:10:57;101633.44;;;30.32;100.00
32324;BME280;25666;44.350;9.222;2022-07-22T13:13:23;101624.19;;;30.37;100.00
32324;BME280;25666;44.350;9.222;2022-07-22T13:15:50;101623.31;;;30.27;100.00